Time;durP1;ratioP1;P1;durP2;ratioP2;P2;SDS_P1;SDS_P2;PMS_P1;PMS_P2;Temp;Humidity;BMP_temperature;BMP_pressure;BME280_temperature;BME280_humidity;BME280_pressure;Samples;Min_cycle;Max_cycle;Signal;HPM_P1;HPM_P2
2022/12/24 00:00:01;;;;;;;26.85;16.98;;;6.30;99.90;;;;;;5047702;28;20037;-77
2022/12/24 00:02:26;;;;;;;27.00;16.95;;;6.50;99.90;;;;;;5048400;28;20512;-78
2022/12/24 00:04:52;;;;;;;24.25;17.05;;;7.40;99.90;;;;;;5020574;28;20041;-78
2022/12/24 00:07:18;;;;;;;31.20;17.35;;;6.40;99.90;;;;;;5044354;28;20114;-77
2022/12/24 00:09:46;;;;;;;31.13;17.33;;;6.40;99.90;;;;;;5025252;28;20179;-80
2022/12/24 00:12:12;;;;;;;32.75;18.10;;;6.40;99.90;;;;;;5031192;28;20083;-77
2022/12/24 00:14:37;;;;;;;30.75;17.55;;;8.10;99.90;;;;;;5032778;28;20440;-79
2022/12/24 00:17:03;;;;;;;35.70;18.73;;;8.00;99.90;;;;;;5040666;28;20061;-80
2022/12/24 00:19:29;;;;;;;31.80;18.20;;;8.10;99.90;;;;;;5030936;28;20033;-79
2022/12/24 00:21:54;;;;;;;32.47;17.90;;;6.20;99.90;;;;;;5012635;28;20083;-77
2022/12/24 00:24:20;;;;;;;33.22;19.48;;;7.20;99.90;;;;;;5037297;28;20049;-79
2022/12/24 00:26:46;;;;;;;25.67;16.45;;;7.00;99.90;;;;;;5033554;28;20044;-78
2022/12/24 00:29:11;;;;;;;31.30;17.27;;;6.40;99.90;;;;;;5046958;28;20033;-78
2022/12/24 00:31:37;;;;;;;31.77;17.27;;;7.50;99.90;;;;;;5040611;28;20045;-78
2022/12/24 00:34:02;;;;;;;31.67;18.00;;;7.40;99.90;;;;;;5042286;28;20516;-78
2022/12/24 00:36:28;;;;;;;33.35;17.10;;;6.60;99.90;;;;;;5036874;28;20566;-77
2022/12/24 00:38:54;;;;;;;30.23;18.15;;;6.40;99.90;;;;;;5024043;28;20080;-78
2022/12/24 00:41:27;;;;;;;30.58;17.90;;;6.40;99.90;;;;;;5048176;28;20098;-79
2022/12/24 00:44:04;;;;;;;27.07;16.30;;;7.70;99.90;;;;;;5033705;28;20064;-78
2022/12/24 00:46:31;;;;;;;23.95;15.43;;;6.60;99.90;;;;;;5048233;28;20337;-79
2022/12/24 00:48:57;;;;;;;28.08;16.77;;;7.30;99.90;;;;;;5036246;28;20056;-80
2022/12/24 00:51:23;;;;;;;32.42;17.35;;;6.30;99.90;;;;;;5028978;28;20457;-79
2022/12/24 00:53:49;;;;;;;28.92;16.05;;;6.90;99.90;;;;;;5031478;28;20056;-79
2022/12/24 00:56:15;;;;;;;25.90;15.57;;;6.10;99.90;;;;;;5042789;28;20546;-78
2022/12/24 00:58:41;;;;;;;25.17;16.05;;;6.20;99.90;;;;;;5021025;28;20045;-77
2022/12/24 01:01:07;;;;;;;27.02;16.23;;;6.40;99.90;;;;;;5042265;28;20056;-78
2022/12/24 01:03:34;;;;;;;21.17;14.88;;;6.40;99.90;;;;;;5037795;28;20435;-76
2022/12/24 01:06:07;;;;;;;27.25;16.40;;;6.40;99.90;;;;;;5040594;28;20059;-77
2022/12/24 01:08:34;;;;;;;37.28;17.70;;;5.00;99.90;;;;;;5030987;28;20245;-77
2022/12/24 01:11:01;;;;;;;35.20;17.90;;;7.40;99.90;;;;;;5080294;28;20044;-77
2022/12/24 01:13:27;;;;;;;35.58;18.75;;;6.40;99.90;;;;;;5030575;28;20117;-78
2022/12/24 01:15:53;;;;;;;34.90;17.50;;;6.40;99.90;;;;;;5047180;28;20552;-77
2022/12/24 01:18:19;;;;;;;26.60;16.25;;;6.40;99.90;;;;;;5029964;28;20504;-77
2022/12/24 01:20:45;;;;;;;27.75;17.35;;;7.50;99.90;;;;;;5064185;28;20056;-77
2022/12/24 01:23:10;;;;;;;31.85;17.73;;;7.60;99.90;;;;;;5030039;28;20063;-76
2022/12/24 01:25:37;;;;;;;29.85;18.20;;;6.80;99.90;;;;;;5030166;28;20552;-77
2022/12/24 01:28:04;;;;;;;25.10;16.45;;;6.80;99.90;;;;;;5048128;28;20029;-77
2022/12/24 01:30:30;;;;;;;25.73;16.10;;;6.40;99.90;;;;;;5046955;28;20052;-77
2022/12/24 01:32:55;;;;;;;23.85;16.27;;;6.40;99.90;;;;;;5035269;28;20037;-77
2022/12/24 01:35:21;;;;;;;27.52;17.48;;;6.40;99.90;;;;;;5026221;28;20500;-77
2022/12/24 01:37:47;;;;;;;30.63;17.48;;;6.40;99.90;;;;;;5044795;28;20515;-78
2022/12/24 01:45:53;;;;;;;27.35;17.48;;;8.00;99.90;;;;;;5048117;28;20056;-78
2022/12/24 01:48:41;;;;;;;29.52;17.38;;;6.40;99.90;;;;;;5030329;28;20048;-77
2022/12/24 01:51:36;;;;;;;29.05;17.42;;;6.40;99.90;;;;;;5041330;28;20508;-78
2022/12/24 01:54:14;;;;;;;27.27;17.23;;;6.40;99.90;;;;;;5035057;28;20393;-78
2022/12/24 01:56:45;;;;;;;27.13;16.90;;;6.40;99.90;;;;;;5047219;28;20102;-77
2022/12/24 01:59:15;;;;;;;31.48;17.50;;;7.80;99.90;;;;;;5046529;28;20161;-77
2022/12/24 02:01:40;;;;;;;30.85;17.42;;;6.40;99.90;;;;;;5029674;28;20512;-77
2022/12/24 02:04:37;;;;;;;27.42;16.52;;;6.50;99.90;;;;;;5046567;28;20033;-78
2022/12/24 02:07:03;;;;;;;25.00;17.83;;;7.70;99.90;;;;;;5016593;28;20480;-79
2022/12/24 02:09:29;;;;;;;27.42;18.00;;;7.40;99.90;;;;;;5046930;28;20052;-77
2022/12/24 02:11:55;;;;;;;34.05;17.77;;;6.50;99.90;;;;;;5029746;28;20083;-78
2022/12/24 02:14:22;;;;;;;25.08;16.88;;;6.40;99.90;;;;;;5045002;28;20478;-77
2022/12/24 02:17:08;;;;;;;27.00;17.67;;;6.50;99.90;;;;;;5030957;28;20083;-78
2022/12/24 02:20:15;;;;;;;29.02;18.27;;;6.50;99.90;;;;;;5051913;28;20102;-78
2022/12/24 02:23:05;;;;;;;35.50;18.65;;;6.50;99.90;;;;;;5024119;28;20063;-78
2022/12/24 02:26:07;;;;;;;29.73;17.30;;;7.90;99.90;;;;;;5034036;28;20488;-79
2022/12/24 02:29:20;;;;;;;33.03;17.80;;;6.50;99.90;;;;;;5030185;28;20056;-78
2022/12/24 02:32:04;;;;;;;32.17;17.40;;;6.50;99.90;;;;;;5046418;28;20077;-80
2022/12/24 02:34:36;;;;;;;32.55;18.83;;;6.50;99.90;;;;;;5033728;28;20048;-79
2022/12/24 02:37:13;;;;;;;38.58;18.75;;;6.50;99.90;;;;;;5043235;28;20451;-79
2022/12/24 02:39:47;;;;;;;30.75;17.90;;;6.50;99.90;;;;;;5049838;28;20060;-78
2022/12/24 02:42:19;;;;;;;33.03;19.13;;;6.60;99.90;;;;;;5081649;28;20389;-78
2022/12/24 02:44:54;;;;;;;25.67;17.83;;;7.00;99.90;;;;;;5033321;28;20040;-78
2022/12/24 02:47:23;;;;;;;31.83;18.98;;;6.60;99.90;;;;;;5075980;28;20037;-78
2022/12/24 02:49:49;;;;;;;29.02;18.25;;;8.20;99.90;;;;;;5049579;28;20041;-77
2022/12/24 02:52:39;;;;;;;28.75;17.23;;;6.60;99.90;;;;;;5049689;28;20044;-78
2022/12/24 02:55:07;;;;;;;25.67;16.65;;;6.70;99.90;;;;;;5025412;28;20033;-77
2022/12/24 02:57:50;;;;;;;29.80;17.23;;;6.80;99.90;;;;;;5048877;28;20106;-77
2022/12/24 03:00:19;;;;;;;26.60;17.10;;;6.90;99.90;;;;;;5060559;28;20148;-77
2022/12/24 03:03:22;;;;;;;21.63;15.95;;;7.10;99.90;;;;;;5049354;28;20115;-78
2022/12/24 03:05:49;;;;;;;22.75;14.65;;;7.00;99.90;;;;;;5049027;28;20048;-79
2022/12/24 03:08:34;;;;;;;24.67;16.05;;;7.20;99.90;;;;;;5049533;28;20123;-77
2022/12/24 03:11:08;;;;;;;18.35;12.32;;;7.20;99.90;;;;;;5065775;28;20400;-78
2022/12/24 03:13:34;;;;;;;24.03;13.70;;;7.40;99.90;;;;;;5030120;28;20048;-77
2022/12/24 03:16:04;;;;;;;22.35;13.10;;;9.30;99.90;;;;;;5049822;28;20104;-77
2022/12/24 03:18:31;;;;;;;22.70;12.73;;;7.50;99.90;;;;;;5048916;28;20809;-77
2022/12/24 03:21:06;;;;;;;22.65;13.38;;;7.50;99.90;;;;;;5032700;28;20056;-77
2022/12/24 03:23:33;;;;;;;22.60;12.38;;;7.60;99.90;;;;;;5051086;28;20037;-77
2022/12/24 03:26:03;;;;;;;23.65;11.93;;;7.60;99.90;;;;;;5049138;28;20032;-77
2022/12/24 03:28:30;;;;;;;20.23;10.93;;;7.60;99.90;;;;;;5031654;28;20048;-77
2022/12/24 03:31:02;;;;;;;22.80;11.18;;;7.60;99.90;;;;;;5032440;28;20523;-77
2022/12/24 03:33:27;;;;;;;26.70;11.07;;;9.40;99.90;;;;;;5032732;28;20044;-77
2022/12/24 03:35:53;;;;;;;22.27;11.52;;;7.70;99.90;;;;;;5049062;28;20059;-76
2022/12/24 03:38:19;;;;;;;21.90;10.52;;;7.70;99.90;;;;;;5048242;28;20047;-77
2022/12/24 03:40:44;;;;;;;25.45;9.95;;;7.70;99.90;;;;;;5033196;28;20079;-76
2022/12/24 03:43:10;;;;;;;24.20;9.98;;;7.80;99.90;;;;;;5032003;28;20064;-77
2022/12/24 03:45:36;;;;;;;31.58;10.05;;;7.70;99.90;;;;;;5064689;28;20040;-77
2022/12/24 03:48:02;;;;;;;32.95;9.65;;;7.80;99.90;;;;;;5032176;28;20032;-78
2022/12/24 03:50:28;;;;;;;26.52;8.85;;;7.80;99.90;;;;;;5047714;28;20098;-77
2022/12/24 03:52:54;;;;;;;28.95;7.97;;;7.90;99.90;;;;;;5031496;28;20137;-78
2022/12/24 03:55:20;;;;;;;27.80;7.47;;;6.50;99.90;;;;;;5042711;28;20029;-78
2022/12/24 03:57:45;;;;;;;28.02;7.82;;;7.90;99.90;;;;;;5048754;28;20567;-79
2022/12/24 04:00:12;;;;;;;34.95;8.00;;;8.30;99.90;;;;;;5031280;28;20033;-79
2022/12/24 04:02:38;;;;;;;32.00;5.53;;;8.00;99.90;;;;;;5032518;28;20277;-78
2022/12/24 04:05:04;;;;;;;42.55;6.68;;;8.00;99.90;;;;;;5031644;28;20413;-78
2022/12/24 04:07:31;;;;;;;37.30;5.80;;;8.00;99.90;;;;;;5048731;28;20461;-79
2022/12/24 04:09:57;;;;;;;37.90;6.35;;;8.00;99.90;;;;;;5048066;28;20489;-78
2022/12/24 04:12:22;;;;;;;37.58;6.63;;;8.10;99.90;;;;;;5064608;28;20037;-78
2022/12/24 04:14:49;;;;;;;35.97;5.82;;;9.40;99.90;;;;;;5062559;28;20505;-78
2022/12/24 04:17:15;;;;;;;43.17;6.93;;;8.70;99.90;;;;;;5031854;28;20049;-78
2022/12/24 04:19:40;;;;;;;33.45;5.68;;;8.00;99.90;;;;;;5032109;28;20604;-78
2022/12/24 04:22:06;;;;;;;34.97;5.22;;;8.00;99.90;;;;;;5080654;28;20128;-78
2022/12/24 04:24:32;;;;;;;42.88;5.82;;;8.00;99.90;;;;;;5048292;28;20528;-78
2022/12/24 04:26:57;;;;;;;41.17;5.43;;;9.20;99.90;;;;;;5062176;28;20057;-78
2022/12/24 04:29:23;;;;;;;38.83;6.55;;;8.00;99.90;;;;;;5030624;28;20025;-78
2022/12/24 04:31:49;;;;;;;38.13;5.53;;;7.40;99.90;;;;;;5048965;28;20041;-78
2022/12/24 04:34:14;;;;;;;32.13;5.30;;;9.60;99.90;;;;;;5048831;28;20064;-77
2022/12/24 04:36:40;;;;;;;27.90;4.53;;;8.10;99.90;;;;;;5049405;28;20120;-78
2022/12/24 04:39:06;;;;;;;42.60;5.72;;;7.90;99.90;;;;;;5044210;28;20028;-78
2022/12/24 04:41:31;;;;;;;46.00;6.40;;;8.60;99.90;;;;;;5046910;28;20041;-78
2022/12/24 04:43:58;;;;;;;38.67;6.10;;;7.80;99.90;;;;;;5077878;28;20044;-78
2022/12/24 04:46:26;;;;;;;36.90;7.00;;;7.80;99.90;;;;;;5047879;28;20067;-77
2022/12/24 04:48:53;;;;;;;44.67;7.18;;;7.80;99.90;;;;;;5046909;28;20076;-78
2022/12/24 04:51:19;;;;;;;46.35;6.45;;;7.80;99.90;;;;;;5047715;28;20064;-76
2022/12/24 04:53:45;;;;;;;42.63;6.50;;;9.40;99.90;;;;;;5049473;28;20072;-78
2022/12/24 04:56:13;;;;;;;36.28;5.75;;;9.30;99.90;;;;;;5046838;28;20079;-77
2022/12/24 04:58:39;;;;;;;30.73;6.00;;;7.70;99.90;;;;;;5047696;28;20051;-78
2022/12/24 05:01:06;;;;;;;47.58;5.90;;;7.80;99.90;;;;;;5047043;28;20280;-79
2022/12/24 05:03:32;;;;;;;38.55;6.78;;;7.80;99.90;;;;;;5046764;28;20400;-78
2022/12/24 05:06:03;;;;;;;44.58;5.95;;;8.10;99.90;;;;;;5047660;28;20123;-78
2022/12/24 05:08:28;;;;;;;44.13;6.80;;;7.70;99.90;;;;;;5030768;28;20037;-77
2022/12/24 05:10:56;;;;;;;37.45;6.03;;;7.80;99.90;;;;;;5048706;28;20466;-79
2022/12/24 05:13:21;;;;;;;40.03;6.25;;;7.80;99.90;;;;;;5043504;28;20132;-79
2022/12/24 05:15:47;;;;;;;38.60;7.43;;;7.80;99.90;;;;;;5047386;28;20143;-77
2022/12/24 05:18:13;;;;;;;36.38;5.72;;;8.60;99.90;;;;;;5045972;28;20063;-76
2022/12/24 05:20:40;;;;;;;33.55;5.97;;;9.20;99.90;;;;;;5047913;28;20037;-78
2022/12/24 05:28:34;;;;;;;43.97;7.82;;;7.80;99.90;;;;;;5043257;28;20045;-77
2022/12/24 05:31:00;;;;;;;53.67;7.22;;;8.20;99.90;;;;;;5047638;28;20051;-78
2022/12/24 05:33:26;;;;;;;53.17;7.07;;;7.80;99.90;;;;;;5047247;28;20041;-76
2022/12/24 05:35:52;;;;;;;40.13;7.07;;;7.80;99.90;;;;;;5045018;28;20079;-78
2022/12/24 05:38:18;;;;;;;38.13;6.07;;;8.50;99.90;;;;;;5029864;28;20047;-78
2022/12/24 05:40:43;;;;;;;56.50;7.75;;;7.90;99.90;;;;;;5048647;28;20033;-77
2022/12/24 05:43:09;;;;;;;48.13;6.78;;;8.00;99.90;;;;;;5080115;28;20575;-77
2022/12/24 05:45:35;;;;;;;47.63;6.43;;;7.80;99.90;;;;;;5047019;28;20056;-77
2022/12/24 05:48:00;;;;;;;53.78;6.13;;;8.10;99.90;;;;;;5048064;28;20033;-77
2022/12/24 05:50:26;;;;;;;49.75;7.40;;;7.80;99.90;;;;;;5047487;28;20037;-79
2022/12/24 05:52:55;;;;;;;41.75;7.10;;;7.80;99.90;;;;;;5048614;28;20045;-77
2022/12/24 05:55:20;;;;;;;55.28;8.65;;;7.80;99.90;;;;;;5050926;28;20044;-77
2022/12/24 05:57:46;;;;;;;48.83;7.03;;;7.90;99.90;;;;;;5052338;28;20130;-77
2022/12/24 06:00:12;;;;;;;43.20;7.25;;;7.80;99.90;;;;;;5051187;28;20067;-77
2022/12/24 06:02:37;;;;;;;57.35;6.57;;;7.90;99.90;;;;;;5048253;28;20041;-78
2022/12/24 06:05:04;;;;;;;54.17;7.13;;;8.30;99.90;;;;;;5050524;28;20388;-77
2022/12/24 06:07:29;;;;;;;48.88;8.32;;;7.90;99.90;;;;;;5050435;28;20041;-78
2022/12/24 06:09:55;;;;;;;59.30;7.13;;;9.30;99.90;;;;;;5034165;28;20485;-78
2022/12/24 06:12:20;;;;;;;53.08;7.03;;;7.90;99.90;;;;;;5034144;28;20049;-77
2022/12/24 06:14:46;;;;;;;44.28;6.93;;;9.10;99.90;;;;;;5045883;28;20045;-78
2022/12/24 06:17:12;;;;;;;49.58;7.90;;;8.70;99.90;;;;;;5084206;28;20052;-78
2022/12/24 06:19:37;;;;;;;38.15;5.80;;;7.80;99.90;;;;;;5052037;28;20414;-79
2022/12/24 06:22:03;;;;;;;51.80;7.45;;;7.90;99.90;;;;;;5083020;28;20044;-77
2022/12/24 06:24:29;;;;;;;46.17;6.90;;;9.20;99.90;;;;;;5050863;28;20130;-76
2022/12/24 06:26:54;;;;;;;47.55;8.05;;;7.80;99.90;;;;;;5066763;28;20485;-76
2022/12/24 06:29:20;;;;;;;46.55;6.82;;;7.80;99.90;;;;;;5033546;28;20623;-78
2022/12/24 06:31:46;;;;;;;44.05;6.60;;;7.80;99.90;;;;;;5050164;28;20045;-78
2022/12/24 06:34:11;;;;;;;56.15;7.35;;;9.30;99.90;;;;;;5066376;28;20043;-77
2022/12/24 06:36:37;;;;;;;50.25;6.70;;;7.70;99.90;;;;;;5033875;28;20481;-78
2022/12/24 06:39:02;;;;;;;45.58;6.35;;;9.30;99.90;;;;;;5051024;28;20033;-77
2022/12/24 06:41:28;;;;;;;43.97;6.90;;;7.70;99.90;;;;;;5046731;28;20103;-77
2022/12/24 06:43:54;;;;;;;45.67;8.02;;;9.30;99.90;;;;;;5051418;28;20404;-77
2022/12/24 06:46:20;;;;;;;41.92;5.65;;;7.80;99.90;;;;;;5033565;28;20044;-78
2022/12/24 06:48:46;;;;;;;45.38;6.85;;;9.00;99.90;;;;;;5048953;28;20033;-78
2022/12/24 06:51:18;;;;;;;47.05;6.68;;;7.70;99.90;;;;;;5031872;28;20041;-77
2022/12/24 06:53:44;;;;;;;52.30;6.72;;;7.70;99.90;;;;;;5083897;28;20044;-77
2022/12/24 06:56:12;;;;;;;51.45;7.43;;;7.60;99.90;;;;;;5082712;28;20568;-77
2022/12/24 06:58:39;;;;;;;45.63;6.50;;;8.80;99.90;;;;;;5049621;28;20512;-78
2022/12/24 07:01:07;;;;;;;51.05;6.75;;;7.70;99.90;;;;;;5032323;28;20041;-77
2022/12/24 07:03:33;;;;;;;41.25;6.80;;;9.10;99.90;;;;;;5048728;28;20106;-77
2022/12/24 07:05:59;;;;;;;44.58;7.85;;;7.70;99.90;;;;;;5066393;28;20408;-77
2022/12/24 07:08:25;;;;;;;46.55;7.25;;;8.70;99.90;;;;;;5032716;28;20037;-76
2022/12/24 07:10:51;;;;;;;46.78;6.43;;;7.70;99.90;;;;;;5065472;28;20304;-77
2022/12/24 07:13:17;;;;;;;45.40;7.47;;;7.70;99.90;;;;;;5027558;28;20045;-79
2022/12/24 07:15:43;;;;;;;41.80;7.07;;;8.00;99.90;;;;;;5043276;28;20045;-78
2022/12/24 07:18:09;;;;;;;39.20;7.38;;;7.80;99.90;;;;;;5081563;28;20067;-78
2022/12/24 07:20:35;;;;;;;43.35;6.40;;;9.00;99.90;;;;;;5051339;28;20029;-78
2022/12/24 07:23:01;;;;;;;46.55;7.43;;;7.90;99.90;;;;;;5048466;28;20041;-77
2022/12/24 07:25:26;;;;;;;47.70;7.35;;;7.90;99.90;;;;;;5033184;28;20040;-78
2022/12/24 07:27:52;;;;;;;45.08;6.80;;;7.90;99.90;;;;;;5044124;28;20384;-77
2022/12/24 07:30:17;;;;;;;46.97;6.43;;;7.90;99.90;;;;;;5081747;28;20045;-77
2022/12/24 07:32:43;;;;;;;41.55;7.72;;;8.00;99.90;;;;;;5049408;28;20513;-78
2022/12/24 07:35:09;;;;;;;36.67;7.18;;;7.90;99.90;;;;;;5025729;28;20044;-77
2022/12/24 07:37:35;;;;;;;49.53;6.53;;;8.80;99.90;;;;;;5028662;28;20108;-77
2022/12/24 07:40:01;;;;;;;42.20;7.03;;;8.00;99.90;;;;;;5061837;28;20049;-77
2022/12/24 07:42:27;;;;;;;40.50;6.10;;;8.40;99.90;;;;;;5078820;28;20484;-77
2022/12/24 07:44:52;;;;;;;53.15;8.25;;;9.60;99.90;;;;;;5065276;28;20131;-77
2022/12/24 07:47:18;;;;;;;48.65;9.23;;;9.40;99.90;;;;;;5049059;28;20443;-78
2022/12/24 07:49:44;;;;;;;51.45;8.27;;;8.50;99.90;;;;;;5049108;28;20439;-78
2022/12/24 07:52:09;;;;;;;49.53;7.55;;;9.50;99.90;;;;;;5081415;28;20087;-78
2022/12/24 07:54:35;;;;;;;41.13;6.95;;;8.00;99.90;;;;;;5032237;28;20229;-78
2022/12/24 07:57:01;;;;;;;49.67;6.65;;;8.70;99.90;;;;;;5082354;28;20099;-77
2022/12/24 07:59:27;;;;;;;37.45;6.60;;;7.90;99.90;;;;;;5018909;28;20477;-77
2022/12/24 08:02:01;;;;;;;47.70;7.47;;;7.90;99.90;;;;;;5048429;28;20037;-77
2022/12/24 08:04:31;;;;;;;45.47;6.82;;;7.80;99.90;;;;;;5050226;28;20051;-77
2022/12/24 08:06:56;;;;;;;40.13;7.13;;;7.90;99.90;;;;;;5048128;28;20077;-77
2022/12/24 08:09:22;;;;;;;45.40;6.03;;;8.80;99.90;;;;;;5031452;28;20077;-77
2022/12/24 08:11:48;;;;;;;48.17;8.60;;;7.90;99.90;;;;;;5048617;28;20044;-77
2022/12/24 08:14:13;;;;;;;48.72;7.00;;;8.00;99.90;;;;;;5070620;28;20041;-79
2022/12/24 08:16:39;;;;;;;46.92;7.30;;;8.10;99.90;;;;;;5048472;28;20563;-79
2022/12/24 08:19:04;;;;;;;53.10;6.55;;;8.10;99.90;;;;;;5031324;28;20404;-80
2022/12/24 08:21:30;;;;;;;57.08;7.72;;;7.90;99.90;;;;;;5031379;28;20129;-79
2022/12/24 08:23:56;;;;;;;57.35;8.23;;;8.00;99.90;;;;;;5049256;28;20123;-77
2022/12/24 08:26:21;;;;;;;42.10;7.30;;;8.00;99.90;;;;;;5047680;28;20119;-78
2022/12/24 08:28:47;;;;;;;36.70;6.60;;;9.20;99.90;;;;;;5048719;28;20214;-80
2022/12/24 08:31:14;;;;;;;43.92;8.80;;;7.90;99.90;;;;;;5048275;28;20033;-79
2022/12/24 08:33:40;;;;;;;47.70;7.32;;;8.20;99.90;;;;;;5048915;28;20048;-79
2022/12/24 08:36:06;;;;;;;41.47;7.13;;;8.00;99.90;;;;;;5047334;28;20048;-80
2022/12/24 08:38:32;;;;;;;45.85;7.20;;;8.00;99.90;;;;;;5030838;28;20461;-78
2022/12/24 08:40:57;;;;;;;51.72;7.57;;;8.00;99.90;;;;;;5047428;28;20052;-78
2022/12/24 08:43:25;;;;;;;41.58;6.88;;;8.00;99.90;;;;;;5064297;28;20029;-78
2022/12/24 08:45:51;;;;;;;49.28;7.72;;;8.00;99.90;;;;;;5031014;28;20049;-78
2022/12/24 08:48:17;;;;;;;48.38;8.40;;;8.00;99.90;;;;;;5030643;28;20037;-79
2022/12/24 08:50:43;;;;;;;46.03;6.85;;;9.30;99.90;;;;;;5031325;28;20064;-79
2022/12/24 08:53:10;;;;;;;49.17;7.60;;;8.00;99.90;;;;;;5047474;28;20550;-78
2022/12/24 08:55:36;;;;;;;49.67;7.47;;;8.00;99.90;;;;;;5047480;28;20413;-78
2022/12/24 08:58:02;;;;;;;51.03;7.22;;;8.00;99.90;;;;;;5048223;28;20059;-78
2022/12/24 09:00:28;;;;;;;51.78;6.63;;;9.50;99.90;;;;;;5049494;28;20041;-78
2022/12/24 09:02:54;;;;;;;49.05;6.20;;;9.00;99.90;;;;;;5046627;28;20053;-78
2022/12/24 09:05:20;;;;;;;48.58;7.25;;;9.60;99.90;;;;;;5030653;28;20040;-78
2022/12/24 09:07:45;;;;;;;47.97;5.80;;;7.70;99.90;;;;;;5048925;28;20040;-78
2022/12/24 09:10:11;;;;;;;40.42;6.63;;;8.10;99.90;;;;;;5047564;28;20496;-78
2022/12/24 09:12:37;;;;;;;38.85;5.35;;;9.50;99.90;;;;;;5047195;28;20041;-77
2022/12/24 09:15:06;;;;;;;47.15;5.70;;;8.10;99.90;;;;;;5047251;28;20124;-78
2022/12/24 09:17:32;;;;;;;42.95;6.55;;;8.10;99.90;;;;;;5047882;28;20061;-79
2022/12/24 09:19:58;;;;;;;40.08;6.22;;;9.50;99.90;;;;;;5047534;28;20049;-79
2022/12/24 09:22:24;;;;;;;39.75;6.93;;;8.20;99.90;;;;;;5047267;28;20543;-78
2022/12/24 09:24:52;;;;;;;41.97;6.78;;;8.90;99.90;;;;;;5047588;28;20060;-78
2022/12/24 09:27:17;;;;;;;46.10;6.57;;;9.80;99.90;;;;;;5047079;28;20045;-77
2022/12/24 09:29:43;;;;;;;47.30;8.80;;;7.10;99.90;;;;;;5030390;28;20037;-78
2022/12/24 09:32:08;;;;;;;44.08;6.63;;;8.30;99.90;;;;;;5079978;28;20049;-77
2022/12/24 09:34:34;;;;;;;48.13;7.45;;;8.20;99.90;;;;;;5036849;28;20045;-77
2022/12/24 09:37:01;;;;;;;48.30;6.07;;;8.20;99.90;;;;;;5042593;28;20495;-78
2022/12/24 09:39:27;;;;;;;39.50;7.57;;;8.10;99.90;;;;;;5069847;28;20120;-77
2022/12/24 09:42:16;;;;;;;46.47;6.90;;;8.40;99.90;;;;;;5045714;28;20043;-77
2022/12/24 09:45:06;;;;;;;50.92;6.57;;;9.40;99.90;;;;;;5041415;28;20041;-77
2022/12/24 09:47:45;;;;;;;53.63;7.43;;;8.30;99.90;;;;;;5035986;28;20132;-77
2022/12/24 09:50:33;;;;;;;39.38;6.30;;;9.70;99.90;;;;;;5041793;28;20077;-78
2022/12/24 09:53:05;;;;;;;58.45;7.32;;;8.40;99.90;;;;;;5054317;28;20064;-78
2022/12/24 09:55:43;;;;;;;42.65;6.15;;;8.40;99.90;;;;;;5045566;28;20049;-77
2022/12/24 09:58:22;;;;;;;30.95;7.40;;;8.40;99.90;;;;;;5041777;28;20071;-79
2022/12/24 10:00:49;;;;;;;43.67;7.68;;;8.40;99.90;;;;;;5043242;28;20041;-77
2022/12/24 10:03:15;;;;;;;45.65;6.65;;;9.30;99.90;;;;;;5046579;28;20052;-78
2022/12/24 10:06:08;;;;;;;42.97;7.90;;;8.50;99.90;;;;;;5029791;28;20033;-77
2022/12/24 10:09:06;;;;;;;56.50;7.43;;;8.50;99.90;;;;;;5029105;28;20044;-77
2022/12/24 10:11:52;;;;;;;47.80;7.80;;;8.60;99.90;;;;;;5046369;28;20040;-78
2022/12/24 10:14:37;;;;;;;51.67;7.32;;;8.60;99.90;;;;;;5038754;28;20106;-77
2022/12/24 10:17:02;;;;;;;45.42;7.20;;;8.70;99.90;;;;;;5057141;28;20052;-78
2022/12/24 10:19:40;;;;;;;45.63;6.43;;;8.70;99.90;;;;;;5045876;28;20052;-77
2022/12/24 10:22:30;;;;;;;42.33;7.85;;;8.80;99.90;;;;;;5029304;28;20041;-78
2022/12/24 10:25:24;;;;;;;37.50;6.57;;;8.80;99.90;;;;;;5046137;28;20049;-80
2022/12/24 10:27:52;;;;;;;35.27;6.83;;;8.80;99.90;;;;;;5038400;28;20053;-80
2022/12/24 10:30:20;;;;;;;36.45;6.28;;;8.80;99.90;;;;;;5047263;28;20044;-79
2022/12/24 10:32:48;;;;;;;33.45;5.32;;;8.80;99.90;;;;;;5043148;28;20048;-80
2022/12/24 10:35:14;;;;;;;33.25;5.32;;;10.10;99.90;;;;;;5033970;28;20460;-79
2022/12/24 10:37:41;;;;;;;37.08;6.80;;;10.10;99.90;;;;;;5047953;28;20152;-77
2022/12/24 10:40:32;;;;;;;35.35;6.75;;;10.20;99.90;;;;;;5027448;28;20408;-80
2022/12/24 10:42:57;;;;;;;37.08;6.72;;;8.90;99.90;;;;;;5022370;28;20318;-80
2022/12/24 10:45:28;;;;;;;30.63;5.82;;;9.70;99.90;;;;;;5039096;28;20124;-78
2022/12/24 10:48:00;;;;;;;42.03;6.43;;;10.30;99.90;;;;;;5038258;28;20408;-80
2022/12/24 10:50:34;;;;;;;38.95;5.70;;;8.90;99.90;;;;;;5039819;28;20497;-78
2022/12/24 10:53:12;;;;;;;32.58;5.30;;;9.10;99.90;;;;;;5038760;28;20122;-79
2022/12/24 10:55:37;;;;;;;35.72;5.75;;;10.40;99.90;;;;;;5040876;28;20044;-79
2022/12/24 10:58:11;;;;;;;30.33;5.85;;;9.10;99.90;;;;;;5046002;28;20041;-79
2022/12/24 11:00:39;;;;;;;38.30;5.95;;;9.40;99.90;;;;;;5024047;28;20403;-79
2022/12/24 11:03:11;;;;;;;34.33;7.28;;;9.00;99.90;;;;;;5035382;28;20052;-78
2022/12/24 11:05:37;;;;;;;29.88;5.68;;;9.40;99.90;;;;;;5032934;28;20041;-78
2022/12/24 11:08:13;;;;;;;32.10;7.20;;;9.00;99.90;;;;;;5018716;28;20127;-77
2022/12/24 11:11:01;;;;;;;34.00;5.45;;;9.10;99.90;;;;;;5032223;28;20041;-77
2022/12/24 11:13:40;;;;;;;28.17;5.53;;;10.40;99.90;;;;;;5021954;28;20049;-78
2022/12/24 11:16:28;;;;;;;32.72;5.15;;;9.90;99.90;;;;;;5036231;28;20128;-77
2022/12/24 11:18:56;;;;;;;31.85;5.20;;;9.10;99.90;;;;;;5032167;28;20116;-79
2022/12/24 11:21:28;;;;;;;31.27;6.20;;;10.50;99.90;;;;;;5037540;28;20516;-77
2022/12/24 11:24:08;;;;;;;31.83;6.00;;;9.10;99.90;;;;;;5013929;28;20038;-77
2022/12/24 11:26:34;;;;;;;40.58;5.93;;;9.10;99.90;;;;;;5072169;28;20048;-77
2022/12/24 11:29:14;;;;;;;34.80;5.45;;;9.00;99.90;;;;;;5018737;28;20048;-77
2022/12/24 11:31:42;;;;;;;37.00;7.10;;;9.00;99.90;;;;;;5020714;28;20092;-78
2022/12/24 11:34:29;;;;;;;34.47;5.35;;;9.10;99.90;;;;;;5021032;28;20049;-77
2022/12/24 11:37:09;;;;;;;33.10;5.28;;;10.40;99.90;;;;;;5034528;28;20053;-77
2022/12/24 11:39:40;;;;;;;25.42;6.18;;;9.10;99.90;;;;;;5033204;28;20029;-77
2022/12/24 11:42:21;;;;;;;34.22;5.60;;;9.00;99.90;;;;;;5025606;28;20076;-77
2022/12/24 11:44:49;;;;;;;34.80;6.30;;;9.10;99.90;;;;;;5032611;28;20580;-77
2022/12/24 11:47:14;;;;;;;28.80;5.05;;;9.00;99.90;;;;;;5039978;28;20382;-77
2022/12/24 11:49:40;;;;;;;38.97;5.88;;;9.00;99.90;;;;;;5063754;28;20041;-77
2022/12/24 11:52:09;;;;;;;38.83;4.93;;;9.00;99.90;;;;;;5035165;28;20038;-77
2022/12/24 11:55:20;;;;;;;34.03;6.13;;;8.90;99.90;;;;;;5054516;28;20079;-77
2022/12/24 11:57:59;;;;;;;32.53;5.53;;;9.10;99.90;;;;;;5005933;28;20056;-77
2022/12/24 12:00:27;;;;;;;26.42;4.97;;;9.00;99.90;;;;;;5037655;28;20401;-78
2022/12/24 12:02:57;;;;;;;22.73;4.63;;;9.00;99.90;;;;;;5053917;28;20044;-77
2022/12/24 12:05:30;;;;;;;22.92;4.30;;;10.00;99.90;;;;;;5031963;28;20127;-77
2022/12/24 12:08:12;;;;;;;25.65;4.80;;;9.00;99.90;;;;;;5080934;28;20037;-78
2022/12/24 12:10:41;;;;;;;31.40;5.25;;;9.00;99.90;;;;;;5048227;28;20041;-77
2022/12/24 12:13:36;;;;;;;38.30;5.20;;;9.00;99.90;;;;;;5048400;28;20036;-76
2022/12/24 12:16:27;;;;;;;24.10;4.40;;;9.00;99.90;;;;;;5042444;28;20049;-77
2022/12/24 12:18:59;;;;;;;36.75;5.55;;;9.00;99.90;;;;;;5029933;28;20080;-77
2022/12/24 12:21:40;;;;;;;27.98;5.15;;;9.10;99.90;;;;;;5047428;28;20033;-77
2022/12/24 12:24:13;;;;;;;32.25;5.28;;;9.00;99.90;;;;;;5022811;28;20040;-77
2022/12/24 12:26:41;;;;;;;32.38;5.00;;;9.10;99.90;;;;;;5031092;28;20052;-77
2022/12/24 12:29:38;;;;;;;28.67;5.50;;;9.10;99.90;;;;;;5047149;28;20145;-77
2022/12/24 12:32:26;;;;;;;33.83;4.63;;;9.10;99.90;;;;;;5038595;28;20511;-77
2022/12/24 12:35:14;;;;;;;37.42;5.80;;;9.00;99.90;;;;;;5030543;28;20045;-76
2022/12/24 12:37:43;;;;;;;31.35;5.63;;;9.00;99.90;;;;;;5064057;28;20041;-77
2022/12/24 12:40:16;;;;;;;25.00;4.75;;;9.10;99.90;;;;;;5043899;28;20041;-78
2022/12/24 12:42:57;;;;;;;36.95;5.60;;;9.00;99.90;;;;;;5028900;28;20452;-79
2022/12/24 12:45:23;;;;;;;33.58;4.63;;;9.00;99.90;;;;;;5041527;28;20083;-78
2022/12/24 12:48:04;;;;;;;25.85;4.07;;;9.10;99.90;;;;;;5030773;28;20317;-77
2022/12/24 12:50:29;;;;;;;31.38;4.35;;;9.10;99.90;;;;;;5044330;28;20117;-78
2022/12/24 12:53:04;;;;;;;30.40;4.93;;;9.10;99.90;;;;;;5029498;28;20080;-78
2022/12/24 12:56:07;;;;;;;29.00;4.90;;;9.10;99.90;;;;;;5044136;28;20037;-78
2022/12/24 12:58:38;;;;;;;27.90;4.45;;;9.10;99.90;;;;;;5042189;28;20041;-79
2022/12/24 13:01:19;;;;;;;24.48;3.63;;;9.10;99.90;;;;;;5045331;28;20037;-78
2022/12/24 13:03:53;;;;;;;34.50;4.65;;;9.10;99.90;;;;;;5046350;28;20584;-77
2022/12/24 13:06:38;;;;;;;24.08;4.18;;;9.10;99.90;;;;;;5046271;28;20033;-77
2022/12/24 13:09:22;;;;;;;23.30;4.30;;;9.10;99.90;;;;;;5038483;28;20048;-76